createdAt,value
2023-03-17T00:04:38.404Z,1.70
2023-03-17T00:09:40.838Z,1.75
2023-03-17T00:14:44.563Z,1.65
2023-03-17T00:19:46.623Z,1.67
2023-03-17T00:24:48.504Z,1.61
2023-03-17T00:29:50.167Z,1.62
2023-03-17T00:34:53.725Z,1.54
2023-03-17T00:39:56.329Z,1.46
2023-03-17T00:45:01.356Z,1.50
2023-03-17T00:50:05.675Z,1.35
2023-03-17T00:55:09.152Z,1.46
2023-03-17T01:00:25.501Z,1.45
2023-03-17T01:05:27.166Z,1.44
2023-03-17T01:10:29.686Z,1.25
2023-03-17T01:15:33.171Z,1.21
2023-03-17T01:20:35.434Z,1.03
2023-03-17T01:25:38.607Z,1.08
2023-03-17T01:30:40.954Z,1.17
2023-03-17T01:35:43.957Z,0.94
2023-03-17T01:40:49.734Z,1.07
2023-03-17T01:46:13.088Z,0.93
2023-03-17T01:51:31.322Z,0.72
2023-03-17T01:56:33.577Z,0.87
2023-03-17T02:01:38.752Z,0.92
2023-03-17T02:06:54.953Z,0.74
2023-03-17T02:12:01.547Z,0.93
2023-03-17T02:17:03.374Z,0.85
2023-03-17T02:22:05.213Z,0.91
2023-03-17T02:27:21.677Z,0.88
2023-03-17T02:32:23.612Z,0.82
2023-03-17T02:37:26.061Z,1.11
2023-03-17T02:42:28.677Z,1.04
2023-03-17T02:47:33.499Z,1.29
2023-03-17T02:52:35.271Z,1.31
2023-03-17T02:57:36.915Z,1.36
2023-03-17T03:02:39.171Z,1.49
2023-03-17T03:07:40.807Z,1.56
2023-03-17T03:12:42.741Z,1.83
2023-03-17T03:17:44.361Z,1.76
2023-03-17T03:22:46.102Z,1.54
2023-03-17T03:27:47.777Z,1.68
2023-03-17T03:32:49.451Z,1.66
2023-03-17T03:37:51.120Z,1.64
2023-03-17T03:42:53.117Z,1.64
2023-03-17T03:47:55.389Z,1.68
2023-03-17T03:52:57.496Z,1.70
2023-03-17T03:57:59.163Z,1.60
2023-03-17T04:03:01.564Z,1.60
2023-03-17T04:08:03.402Z,1.65
2023-03-17T04:13:05.622Z,1.64
2023-03-17T04:18:07.266Z,1.57
2023-03-17T04:23:08.888Z,1.52
2023-03-17T04:28:11.876Z,1.80
2023-03-17T04:33:13.857Z,1.49
2023-03-17T04:38:15.771Z,1.48
2023-03-17T04:43:18.226Z,1.43
2023-03-17T04:48:19.838Z,1.60
2023-03-17T04:53:22.401Z,1.48
2023-03-17T04:58:30.826Z,1.46
2023-03-17T05:03:33.307Z,1.40
2023-03-17T05:08:34.952Z,1.39
2023-03-17T05:13:36.921Z,1.37
2023-03-17T05:18:38.983Z,1.42
2023-03-17T05:23:41.148Z,1.36
2023-03-17T05:28:42.810Z,1.27
2023-03-17T05:33:44.772Z,1.22
2023-03-17T05:38:46.767Z,1.40
2023-03-17T05:43:48.408Z,1.58
2023-03-17T05:48:50.112Z,1.84
2023-03-17T05:53:51.736Z,1.78
2023-03-17T05:58:53.352Z,1.88
2023-03-17T06:03:55.361Z,2.02
2023-03-17T06:08:57.038Z,2.05
2023-03-17T06:13:58.648Z,2.50
2023-03-17T06:19:00.423Z,2.53
2023-03-17T06:24:02.149Z,2.81
2023-03-17T06:29:05.037Z,3.19
2023-03-17T06:34:06.955Z,3.49
2023-03-17T06:39:09.614Z,4.16
2023-03-17T06:44:11.249Z,4.79
2023-03-17T06:49:13.606Z,5.94
2023-03-17T06:54:15.298Z,6.15
2023-03-17T06:59:17.016Z,7.53
2023-03-17T07:04:19.740Z,6.48
2023-03-17T07:09:22.145Z,7.62
2023-03-17T07:14:24.344Z,9.69
2023-03-17T07:19:27.287Z,10.00
2023-03-17T07:24:28.954Z,9.65
2023-03-17T07:29:32.456Z,8.78
2023-03-17T07:34:34.804Z,8.29
2023-03-17T07:39:36.640Z,7.60
2023-03-17T07:44:41.564Z,7.57
2023-03-17T07:49:43.257Z,7.53
2023-03-17T07:54:45.092Z,7.74
2023-03-17T07:59:47.508Z,10.03
2023-03-17T08:04:49.157Z,12.09
2023-03-17T08:09:51.220Z,14.89
2023-03-17T08:14:53.196Z,17.31
2023-03-17T08:19:56.025Z,16.47
2023-03-17T08:24:58.658Z,16.89
2023-03-17T08:30:00.439Z,16.02
2023-03-17T08:35:02.078Z,15.76
2023-03-17T08:40:05.619Z,13.26
2023-03-17T08:45:07.819Z,12.80
2023-03-17T08:50:14.937Z,14.21
2023-03-17T08:55:16.848Z,14.81
2023-03-17T09:00:20.514Z,15.36
2023-03-17T09:05:22.193Z,17.01
2023-03-17T09:10:24.296Z,19.26
2023-03-17T09:15:26.696Z,18.32
2023-03-17T09:20:28.361Z,17.88
2023-03-17T09:25:30.063Z,18.33
2023-03-17T09:30:32.878Z,15.83
2023-03-17T09:35:34.775Z,16.15
2023-03-17T09:40:49.262Z,18.89
2023-03-17T09:45:51.626Z,16.97
2023-03-17T09:51:05.067Z,17.92
2023-03-17T09:56:16.273Z,16.79
2023-03-17T10:01:18.585Z,16.61
2023-03-17T10:06:36.915Z,16.42
2023-03-17T10:11:44.200Z,16.70
2023-03-17T10:16:58.126Z,16.78
2023-03-17T10:22:06.384Z,16.93
2023-03-17T10:27:12.505Z,17.34
2023-03-17T10:32:15.152Z,18.37
2023-03-17T10:37:26.855Z,18.45
2023-03-17T10:42:32.330Z,18.78
2023-03-17T10:47:56.502Z,18.71
2023-03-17T10:53:00.627Z,16.58
2023-03-17T10:58:13.713Z,17.68
2023-03-17T11:03:22.863Z,16.65
2023-03-17T11:08:24.656Z,16.49
2023-03-17T11:13:30.596Z,16.42
2023-03-17T11:18:36.687Z,15.96
2023-03-17T11:23:50.129Z,17.43
2023-03-17T11:29:04.954Z,17.06
2023-03-17T11:34:35.873Z,18.63
2023-03-17T11:39:57.927Z,19.58
2023-03-17T11:45:09.864Z,19.22
2023-03-17T11:50:20.918Z,19.08
2023-03-17T11:55:45.396Z,19.10
2023-03-17T12:00:54.154Z,18.45
2023-03-17T12:06:00.694Z,18.44
2023-03-17T12:11:08.470Z,19.29
2023-03-17T12:16:33.497Z,17.15
2023-03-17T12:21:55.660Z,17.75
2023-03-17T12:27:03.640Z,18.47
2023-03-17T12:32:12.453Z,19.60
2023-03-17T12:37:16.062Z,19.84
2023-03-17T12:42:38.437Z,19.30
2023-03-17T12:48:01.909Z,18.41
2023-03-17T12:53:06.603Z,16.93
2023-03-17T12:58:30.855Z,17.01
2023-03-17T13:03:34.413Z,16.81
2023-03-17T13:08:41.184Z,16.23
2023-03-17T13:13:54.615Z,15.53
2023-03-17T13:19:17.419Z,14.97
2023-03-17T13:24:36.166Z,15.02
2023-03-17T13:29:41.911Z,15.56
2023-03-17T13:34:50.677Z,15.18
2023-03-17T13:40:12.236Z,15.27
2023-03-17T13:45:34.005Z,15.04
2023-03-17T13:50:40.131Z,15.22
2023-03-17T13:56:03.207Z,14.75
2023-03-17T14:01:07.405Z,15.01
2023-03-17T14:06:12.361Z,15.03
2023-03-17T14:11:45.361Z,14.46
2023-03-17T14:16:55.401Z,14.25
2023-03-17T14:22:18.139Z,14.59
2023-03-17T14:27:22.577Z,14.28
2023-03-17T14:32:25.004Z,14.32
2023-03-17T14:37:28.412Z,14.38
2023-03-17T14:42:31.573Z,14.20
2023-03-17T14:47:39.777Z,14.29
2023-03-17T14:52:41.470Z,14.44
2023-03-17T14:57:49.291Z,14.32
2023-03-17T15:02:59.595Z,14.12
2023-03-17T15:08:01.403Z,13.86
2023-03-17T15:13:06.383Z,13.77
2023-03-17T15:18:13.077Z,13.66
2023-03-17T15:23:18.282Z,13.48
2023-03-17T15:28:21.058Z,13.14
2023-03-17T15:33:36.345Z,13.13
2023-03-17T15:38:39.104Z,13.10
2023-03-17T15:43:40.833Z,13.02
2023-03-17T15:48:42.467Z,12.91
2023-03-17T15:53:44.110Z,12.88
2023-03-17T15:58:51.595Z,12.78
2023-03-17T16:03:53.302Z,12.50
2023-03-17T16:08:54.926Z,12.55
2023-03-17T16:13:59.992Z,12.31
2023-03-17T16:19:02.576Z,12.21
2023-03-17T16:24:04.590Z,12.11
2023-03-17T16:29:13.425Z,12.08
2023-03-17T16:34:21.324Z,11.91
2023-03-17T16:39:23.782Z,11.85
2023-03-17T16:44:25.976Z,11.66
2023-03-17T16:49:28.053Z,11.56
2023-03-17T16:54:33.221Z,11.55
2023-03-17T16:59:34.993Z,11.39
2023-03-17T17:04:38.507Z,11.26
2023-03-17T17:09:40.138Z,11.03
2023-03-17T17:14:41.795Z,10.83
2023-03-17T17:19:43.414Z,10.56
2023-03-17T17:24:45.073Z,10.46
2023-03-17T17:29:46.689Z,10.39
2023-03-17T17:34:48.322Z,10.15
2023-03-17T17:39:51.598Z,10.11
2023-03-17T17:44:53.472Z,10.54
2023-03-17T17:49:55.126Z,10.54
2023-03-17T17:54:57.209Z,10.57
2023-03-17T17:59:58.836Z,10.50
2023-03-17T18:05:00.952Z,10.31
2023-03-17T18:10:03.856Z,10.51
2023-03-17T18:15:06.149Z,10.62
2023-03-17T18:20:08.910Z,10.62
2023-03-17T18:25:12.127Z,10.59
2023-03-17T18:30:20.448Z,10.76
2023-03-17T18:35:24.273Z,10.67
2023-03-17T18:40:26.661Z,10.23
2023-03-17T18:45:29.048Z,9.89
2023-03-17T18:50:30.925Z,9.97
2023-03-17T18:55:32.788Z,9.67
2023-03-17T19:00:34.401Z,9.35
2023-03-17T19:05:38.474Z,9.02
2023-03-17T19:10:42.937Z,9.25
2023-03-17T19:15:44.554Z,9.44
2023-03-17T19:20:46.302Z,8.93
2023-03-17T19:25:48.357Z,9.31
2023-03-17T19:30:50.004Z,8.58
2023-03-17T19:35:56.156Z,8.33
2023-03-17T19:40:57.826Z,8.35
2023-03-17T19:45:59.716Z,8.24
2023-03-17T19:51:02.177Z,8.03
2023-03-17T19:56:04.384Z,8.67
2023-03-17T20:01:07.558Z,8.76
2023-03-17T20:06:13.231Z,8.25
2023-03-17T20:11:15.114Z,9.11
2023-03-17T20:16:17.333Z,9.52
2023-03-17T20:21:19.079Z,8.91
2023-03-17T20:26:20.976Z,9.27
2023-03-17T20:31:22.850Z,8.83
2023-03-17T20:36:24.603Z,8.26
2023-03-17T20:41:26.356Z,8.98
2023-03-17T20:46:28.024Z,8.90
2023-03-17T20:51:29.772Z,8.66
2023-03-17T20:56:33.866Z,8.42
2023-03-17T21:01:37.518Z,8.82
2023-03-17T21:06:39.717Z,8.94
2023-03-17T21:11:41.694Z,8.70
2023-03-17T21:16:45.048Z,8.80
2023-03-17T21:21:46.657Z,8.46
2023-03-17T21:26:48.265Z,8.53
2023-03-17T21:31:49.925Z,9.07
2023-03-17T21:36:51.560Z,9.03
2023-03-17T21:41:54.483Z,8.84
2023-03-17T21:46:56.966Z,8.47
2023-03-17T21:51:58.674Z,8.91
2023-03-17T21:57:00.425Z,8.89
2023-03-17T22:02:02.942Z,8.91
2023-03-17T22:07:04.671Z,8.52
2023-03-17T22:12:07.241Z,8.34
2023-03-17T22:17:09.174Z,8.51
2023-03-17T22:22:11.383Z,9.01
2023-03-17T22:27:14.926Z,8.98
2023-03-17T22:32:16.558Z,8.09
2023-03-17T22:37:18.167Z,7.86
2023-03-17T22:42:19.829Z,7.65
2023-03-17T22:47:21.445Z,7.36
2023-03-17T22:52:23.393Z,7.07
2023-03-17T22:57:25.049Z,6.92
2023-03-17T23:02:26.802Z,6.68
2023-03-17T23:07:35.572Z,6.76
2023-03-17T23:12:43.990Z,6.54
2023-03-17T23:17:46.253Z,6.42
2023-03-17T23:22:48.303Z,6.30
2023-03-17T23:27:50.108Z,6.21
2023-03-17T23:32:51.829Z,6.13
2023-03-17T23:37:53.612Z,6.30
2023-03-17T23:42:55.348Z,6.23
2023-03-17T23:47:57.590Z,5.99
2023-03-17T23:52:59.255Z,5.99
2023-03-17T23:58:01.538Z,5.77
